Time;durP1;ratioP1;P1;durP2;ratioP2;P2;SDS_P1;SDS_P2;PMS_P1;PMS_P2;Temp;Humidity;BMP_temperature;BMP_pressure;BME280_temperature;BME280_humidity;BME280_pressure;Samples;Min_cycle;Max_cycle;Signal;HPM_P1;HPM_P2
2023/06/24 00:00:43;;;;;;;3.13;2.80;;;26.50;40.00;;;;;;5150030;27;45324;-66
2023/06/24 00:03:17;;;;;;;2.95;2.25;;;26.50;40.10;;;;;;5149942;27;45227;-66
2023/06/24 00:05:49;;;;;;;4.32;2.90;;;26.50;40.10;;;;;;5150196;27;45306;-66
2023/06/24 00:08:15;;;;;;;3.13;2.83;;;26.50;40.20;;;;;;5149863;27;45339;-66
2023/06/24 00:10:44;;;;;;;2.83;2.40;;;26.50;40.20;;;;;;5149709;27;45241;-64
2023/06/24 00:13:11;;;;;;;3.08;2.47;;;26.50;40.30;;;;;;5150014;27;45261;-66
2023/06/24 00:15:42;;;;;;;3.05;2.75;;;26.40;40.20;;;;;;5150062;27;45263;-66
2023/06/24 00:18:09;;;;;;;3.13;2.65;;;26.40;40.20;;;;;;5149805;27;45371;-66
2023/06/24 00:20:37;;;;;;;3.15;2.60;;;26.40;40.30;;;;;;5149692;27;45287;-66
2023/06/24 00:23:04;;;;;;;2.95;2.45;;;26.40;40.90;;;;;;5149923;27;45589;-67
2023/06/24 00:25:31;;;;;;;2.78;2.42;;;26.40;40.40;;;;;;5149936;27;45285;-66
2023/06/24 00:27:58;;;;;;;2.70;2.35;;;26.30;40.40;;;;;;5149577;27;46474;-66
2023/06/24 00:30:27;;;;;;;3.28;2.28;;;26.30;40.40;;;;;;5149560;27;45337;-65
2023/06/24 00:32:59;;;;;;;2.58;2.38;;;26.30;40.50;;;;;;5148921;27;45263;-66
2023/06/24 00:35:26;;;;;;;3.08;2.50;;;26.30;40.60;;;;;;5149689;27;45391;-66
2023/06/24 00:37:58;;;;;;;2.78;2.58;;;26.30;40.50;;;;;;5149320;27;45306;-66
2023/06/24 00:40:24;;;;;;;2.92;2.67;;;26.30;40.50;;;;;;5149346;27;45458;-66
2023/06/24 00:42:51;;;;;;;3.33;2.38;;;26.20;40.60;;;;;;5149394;27;45257;-66
2023/06/24 00:45:18;;;;;;;2.50;2.30;;;26.20;40.60;;;;;;5149637;27;45201;-66
2023/06/24 00:47:45;;;;;;;3.47;2.67;;;26.20;40.60;;;;;;5149412;27;45397;-66
2023/06/24 00:50:12;;;;;;;2.90;2.60;;;26.20;40.60;;;;;;5149223;27;45387;-66
2023/06/24 00:52:42;;;;;;;4.05;2.58;;;26.20;40.70;;;;;;5149284;27;45294;-65
2023/06/24 00:55:11;;;;;;;4.93;2.70;;;26.20;40.70;;;;;;5149414;27;45401;-66
2023/06/24 00:57:38;;;;;;;3.60;2.33;;;26.10;40.70;;;;;;5149068;27;46945;-66
2023/06/24 01:00:09;;;;;;;3.25;2.50;;;26.10;41.30;;;;;;5149090;27;45343;-66
2023/06/24 01:02:37;;;;;;;2.50;2.30;;;26.10;40.70;;;;;;5149000;27;45426;-65
2023/06/24 01:05:05;;;;;;;2.70;2.50;;;26.10;40.80;;;;;;5149315;27;45381;-66
2023/06/24 01:07:33;;;;;;;2.88;2.67;;;26.10;40.90;;;;;;5148839;27;45526;-66
2023/06/24 01:10:00;;;;;;;2.95;2.75;;;26.00;40.90;;;;;;5148674;27;45330;-65
2023/06/24 01:12:28;;;;;;;3.33;2.40;;;26.00;40.80;;;;;;5148923;27;45424;-66
2023/06/24 01:14:55;;;;;;;2.42;2.22;;;26.00;40.80;;;;;;5149197;27;45552;-66
2023/06/24 01:17:24;;;;;;;2.42;2.22;;;26.00;40.90;;;;;;5148709;27;45260;-66
2023/06/24 01:20:07;;;;;;;2.75;2.40;;;26.00;41.00;;;;;;5148654;27;45279;-66
2023/06/24 01:23:18;;;;;;;2.50;2.30;;;26.00;41.00;;;;;;5149031;27;45241;-66
2023/06/24 01:26:00;;;;;;;2.70;2.40;;;26.00;41.00;;;;;;5138290;27;45298;-65
2023/06/24 01:31:32;;;;;;;2.90;2.60;;;25.90;41.10;;;;;;5144078;27;45298;-65
2023/06/24 01:34:02;;;;;;;2.65;2.45;;;25.90;41.10;;;;;;5144393;27;45191;-66
2023/06/24 01:36:29;;;;;;;2.50;2.30;;;25.80;41.10;;;;;;5144545;27;45371;-66
2023/06/24 01:38:58;;;;;;;3.20;2.70;;;25.80;41.00;;;;;;5144678;27;45421;-66
2023/06/24 01:41:26;;;;;;;2.75;2.50;;;25.80;41.10;;;;;;5144185;27;46387;-66
2023/06/24 01:43:53;;;;;;;2.65;2.45;;;25.80;41.10;;;;;;5144368;27;45427;-66
2023/06/24 01:46:21;;;;;;;2.50;2.30;;;25.80;41.10;;;;;;5144558;27;45331;-66
2023/06/24 01:48:51;;;;;;;2.67;2.47;;;25.80;41.10;;;;;;5144514;27;45313;-66
2023/06/24 01:51:19;;;;;;;2.72;2.53;;;25.70;41.00;;;;;;5143886;27;45571;-66
2023/06/24 01:53:49;;;;;;;3.05;2.30;;;25.70;41.70;;;;;;5144100;27;45329;-67
2023/06/24 01:56:17;;;;;;;3.17;2.55;;;25.70;41.70;;;;;;5144226;27;45307;-66
2023/06/24 01:58:44;;;;;;;2.25;2.05;;;25.60;41.10;;;;;;5144344;27;45307;-65
2023/06/24 02:01:11;;;;;;;3.28;2.45;;;25.60;41.00;;;;;;5143826;27;45537;-66
2023/06/24 02:03:38;;;;;;;3.08;2.72;;;25.60;41.10;;;;;;5144178;27;45355;-65
2023/06/24 02:06:06;;;;;;;2.63;2.42;;;25.60;41.20;;;;;;5144095;27;45316;-65
2023/06/24 02:08:34;;;;;;;3.10;2.47;;;25.60;41.30;;;;;;5144611;27;45611;-67
2023/06/24 02:11:01;;;;;;;3.17;2.33;;;25.60;41.10;;;;;;5143553;27;46373;-65
2023/06/24 02:13:27;;;;;;;2.13;2.00;;;25.60;41.10;;;;;;5143789;27;45393;-65
2023/06/24 02:15:54;;;;;;;3.13;2.40;;;25.60;41.20;;;;;;5143939;27;45244;-66
2023/06/24 02:18:23;;;;;;;2.78;2.30;;;25.60;41.20;;;;;;5143975;27;45310;-66
2023/06/24 02:20:50;;;;;;;3.05;2.53;;;25.50;41.30;;;;;;5143611;27;46896;-66
2023/06/24 02:23:18;;;;;;;2.25;2.08;;;25.50;41.20;;;;;;5143626;27;45311;-66
2023/06/24 02:25:45;;;;;;;2.60;2.40;;;25.50;41.30;;;;;;5143740;27;45181;-66
2023/06/24 02:28:11;;;;;;;2.65;2.45;;;25.50;41.30;;;;;;5143941;27;45282;-66
2023/06/24 02:30:39;;;;;;;2.78;2.38;;;25.50;41.30;;;;;;5142955;27;46345;-66
2023/06/24 02:33:06;;;;;;;2.30;2.00;;;25.50;41.40;;;;;;5143165;27;45327;-66
2023/06/24 02:35:33;;;;;;;2.40;2.20;;;25.40;41.20;;;;;;5143510;27;45259;-66
2023/06/24 02:38:00;;;;;;;2.15;1.95;;;25.40;41.20;;;;;;5143806;27;45305;-67
2023/06/24 02:40:28;;;;;;;2.95;2.45;;;25.40;41.30;;;;;;5142837;27;46425;-66
2023/06/24 02:42:54;;;;;;;2.78;2.22;;;25.40;41.40;;;;;;5128983;27;45513;-66
2023/06/24 02:45:22;;;;;;;2.40;2.20;;;25.40;41.40;;;;;;5129605;27;45311;-66
2023/06/24 02:47:48;;;;;;;3.03;2.42;;;25.40;41.40;;;;;;5129662;27;45239;-66
2023/06/24 02:50:15;;;;;;;2.30;2.10;;;25.30;41.30;;;;;;5129086;27;45335;-65
2023/06/24 02:52:42;;;;;;;2.45;2.25;;;25.30;41.30;;;;;;5129379;27;45231;-65
2023/06/24 02:55:09;;;;;;;2.35;2.15;;;25.30;41.50;;;;;;5129278;27;45419;-66
2023/06/24 02:57:39;;;;;;;2.72;2.30;;;25.30;41.50;;;;;;5129521;27;45299;-65
2023/06/24 03:00:08;;;;;;;2.30;2.10;;;25.30;41.50;;;;;;5129103;27;47130;-66
2023/06/24 03:02:35;;;;;;;2.30;2.10;;;25.30;41.50;;;;;;5129030;27;45379;-66
2023/06/24 03:05:02;;;;;;;2.90;2.42;;;25.30;41.50;;;;;;5129152;27;45457;-66
2023/06/24 03:07:30;;;;;;;2.42;2.25;;;25.30;41.50;;;;;;5129466;27;45323;-65
2023/06/24 03:09:57;;;;;;;2.42;2.22;;;25.30;41.50;;;;;;5128838;27;47688;-66
2023/06/24 03:12:24;;;;;;;2.38;2.17;;;25.20;41.50;;;;;;5128747;27;45331;-65
2023/06/24 03:14:52;;;;;;;2.50;2.30;;;25.20;41.60;;;;;;5129090;27;45549;-66
2023/06/24 03:17:19;;;;;;;2.70;2.50;;;25.20;42.20;;;;;;5129179;27;45181;-66
2023/06/24 03:19:46;;;;;;;2.90;2.60;;;25.20;41.50;;;;;;5128736;27;47297;-66
2023/06/24 03:22:13;;;;;;;2.83;2.40;;;25.20;41.70;;;;;;5128801;27;45261;-65
2023/06/24 03:24:40;;;;;;;2.33;2.13;;;25.20;41.70;;;;;;5129022;27;45333;-66
2023/06/24 03:27:06;;;;;;;2.63;2.33;;;25.20;41.70;;;;;;5128996;27;45426;-65
2023/06/24 03:29:33;;;;;;;2.72;2.53;;;25.10;41.50;;;;;;5128102;27;46810;-65
2023/06/24 03:32:01;;;;;;;2.22;2.03;;;25.10;41.70;;;;;;5128674;27;45330;-66
2023/06/24 03:34:33;;;;;;;2.78;2.20;;;25.10;41.80;;;;;;5128809;27;45263;-65
2023/06/24 03:37:00;;;;;;;2.65;2.45;;;25.10;41.80;;;;;;5128938;27;45474;-66
2023/06/24 03:39:27;;;;;;;2.08;1.88;;;25.10;42.40;;;;;;5128406;27;45180;-65
2023/06/24 03:41:54;;;;;;;2.95;2.40;;;25.10;41.70;;;;;;5128422;27;45353;-65
2023/06/24 03:44:20;;;;;;;2.45;2.25;;;25.00;41.80;;;;;;5128661;27;45469;-66
2023/06/24 03:46:47;;;;;;;2.63;2.42;;;25.00;41.80;;;;;;5128684;27;45350;-66
2023/06/24 03:49:15;;;;;;;2.80;2.42;;;25.00;41.70;;;;;;5128318;27;45371;-66
2023/06/24 03:51:43;;;;;;;2.65;2.45;;;25.00;41.80;;;;;;5128255;27;45292;-66
2023/06/24 03:54:10;;;;;;;2.22;2.00;;;25.00;41.80;;;;;;5127295;27;45316;-66
2023/06/24 03:56:37;;;;;;;2.60;2.40;;;25.00;41.90;;;;;;5128644;27;45354;-65
2023/06/24 03:59:04;;;;;;;2.55;2.35;;;25.00;41.90;;;;;;5128092;27;46321;-67
2023/06/24 04:01:31;;;;;;;2.42;2.22;;;24.90;41.90;;;;;;5128185;27;45357;-65
2023/06/24 04:03:58;;;;;;;2.40;2.20;;;24.90;41.90;;;;;;5128351;27;45326;-66
2023/06/24 04:06:26;;;;;;;2.50;2.30;;;24.90;42.00;;;;;;5128484;27;45308;-66
2023/06/24 04:08:53;;;;;;;2.65;2.45;;;24.90;42.00;;;;;;5128202;27;46366;-66
2023/06/24 04:11:20;;;;;;;4.00;2.15;;;24.90;42.00;;;;;;5127780;27;45487;-65
2023/06/24 04:13:48;;;;;;;2.58;2.35;;;24.90;42.00;;;;;;5128189;27;45291;-66
2023/06/24 04:16:15;;;;;;;2.42;2.33;;;24.80;42.00;;;;;;5128218;27;45554;-66
2023/06/24 04:18:41;;;;;;;2.53;2.33;;;24.80;42.00;;;;;;5127721;27;46376;-66
2023/06/24 04:21:08;;;;;;;2.60;2.40;;;24.80;42.60;;;;;;5127835;27;45415;-65
2023/06/24 04:23:36;;;;;;;1.95;1.85;;;24.80;42.10;;;;;;5128062;27;45298;-65
2023/06/24 04:26:03;;;;;;;2.70;2.50;;;24.80;42.00;;;;;;5128135;27;45286;-66
2023/06/24 04:28:30;;;;;;;2.65;2.42;;;24.80;42.00;;;;;;5127666;27;45589;-65
2023/06/24 04:30:57;;;;;;;2.55;2.30;;;24.80;42.10;;;;;;5127219;27;45376;-65
2023/06/24 04:33:24;;;;;;;2.33;2.13;;;24.70;42.00;;;;;;5127850;27;45346;-65
2023/06/24 04:35:52;;;;;;;2.83;2.55;;;24.70;42.00;;;;;;5127943;27;45540;-66
2023/06/24 04:38:18;;;;;;;3.22;2.50;;;24.70;42.10;;;;;;5127494;27;45414;-66
2023/06/24 04:40:47;;;;;;;2.17;1.98;;;24.70;42.10;;;;;;5127878;27;45287;-66
2023/06/24 04:43:14;;;;;;;2.53;2.10;;;24.70;42.00;;;;;;5127700;27;45376;-66
2023/06/24 04:45:40;;;;;;;2.60;2.40;;;24.70;42.00;;;;;;5125073;27;45369;-66
2023/06/24 04:48:07;;;;;;;2.50;2.30;;;24.70;42.10;;;;;;5127606;27;45347;-65
2023/06/24 04:50:34;;;;;;;3.63;2.47;;;24.70;42.10;;;;;;5127205;27;45271;-65
2023/06/24 04:53:01;;;;;;;2.60;2.40;;;24.70;42.00;;;;;;5127563;27;45305;-66
2023/06/24 04:55:29;;;;;;;2.22;2.05;;;24.70;42.10;;;;;;5127599;27;45372;-65
2023/06/24 04:57:57;;;;;;;2.45;2.25;;;24.70;42.00;;;;;;5127449;27;46378;-65
2023/06/24 05:00:25;;;;;;;2.30;2.10;;;24.70;42.00;;;;;;5127368;27;45209;-65
2023/06/24 05:02:52;;;;;;;2.58;2.28;;;24.70;42.00;;;;;;5127307;27;45308;-65
2023/06/24 05:05:20;;;;;;;2.45;2.25;;;24.70;42.00;;;;;;5127022;27;45397;-66
2023/06/24 05:07:47;;;;;;;2.60;2.40;;;24.70;42.10;;;;;;5127057;27;45419;-65
2023/06/24 05:10:13;;;;;;;2.40;1.88;;;24.70;42.00;;;;;;5127082;27;45253;-65
2023/06/24 05:12:40;;;;;;;2.70;2.50;;;24.70;41.90;;;;;;5127241;27;45398;-66
2023/06/24 05:15:09;;;;;;;2.30;2.10;;;24.70;41.90;;;;;;5127448;27;45368;-65
2023/06/24 05:17:36;;;;;;;2.50;2.20;;;24.70;41.90;;;;;;5126976;27;47560;-65
2023/06/24 05:20:03;;;;;;;2.30;2.10;;;24.70;41.90;;;;;;5126963;27;45374;-65
2023/06/24 05:22:30;;;;;;;2.30;2.10;;;24.70;41.90;;;;;;5127218;27;45320;-65
2023/06/24 05:24:57;;;;;;;2.50;2.15;;;24.70;41.90;;;;;;5127202;27;45421;-66
2023/06/24 05:27:24;;;;;;;2.55;2.35;;;24.70;42.00;;;;;;5126797;27;46738;-66
2023/06/24 05:29:51;;;;;;;2.20;2.00;;;24.70;42.00;;;;;;5126581;27;45300;-65
2023/06/24 05:32:20;;;;;;;2.40;2.20;;;24.70;41.90;;;;;;5126860;27;45345;-66
2023/06/24 05:34:47;;;;;;;2.28;2.08;;;24.70;42.00;;;;;;5127120;27;45310;-66
2023/06/24 05:37:13;;;;;;;2.15;1.92;;;24.70;41.90;;;;;;5126685;27;46412;-65
2023/06/24 05:39:40;;;;;;;2.40;2.20;;;24.70;42.00;;;;;;5126867;27;45390;-66
2023/06/24 05:42:07;;;;;;;2.35;2.15;;;24.70;41.90;;;;;;5126836;27;45347;-65
2023/06/24 05:44:34;;;;;;;2.42;2.22;;;24.70;41.90;;;;;;5127043;27;45407;-66
2023/06/24 05:47:01;;;;;;;1.98;1.88;;;24.70;41.90;;;;;;5126701;27;47596;-66
2023/06/24 05:49:29;;;;;;;2.28;2.08;;;24.70;41.90;;;;;;5126590;27;45452;-65
2023/06/24 05:51:57;;;;;;;2.30;2.10;;;24.70;41.90;;;;;;5126712;27;45370;-66
2023/06/24 05:54:24;;;;;;;2.38;2.17;;;24.70;41.90;;;;;;5126830;27;45248;-65
2023/06/24 05:56:51;;;;;;;2.60;2.40;;;24.70;41.90;;;;;;5126496;27;45478;-66
2023/06/24 05:59:17;;;;;;;2.67;2.20;;;24.70;41.90;;;;;;5126570;27;45334;-65
2023/06/24 06:01:44;;;;;;;2.13;1.92;;;24.70;42.00;;;;;;5126752;27;45330;-66
2023/06/24 06:04:11;;;;;;;2.45;2.25;;;24.70;41.90;;;;;;5126733;27;45433;-66
2023/06/24 06:06:39;;;;;;;2.47;2.28;;;24.70;41.90;;;;;;5126252;27;45310;-65
2023/06/24 06:09:06;;;;;;;2.58;2.38;;;24.70;42.60;;;;;;5126415;27;45184;-65
2023/06/24 06:11:33;;;;;;;2.38;2.17;;;24.70;42.00;;;;;;5126420;27;45210;-65
2023/06/24 06:14:00;;;;;;;2.40;2.20;;;24.70;42.00;;;;;;5126593;27;45590;-65
2023/06/24 06:16:28;;;;;;;3.30;2.20;;;24.70;42.00;;;;;;5127211;27;45253;-65
2023/06/24 06:18:55;;;;;;;2.63;2.35;;;24.70;42.10;;;;;;5129795;27;45330;-65
2023/06/24 06:21:22;;;;;;;2.38;2.00;;;24.70;42.00;;;;;;5129890;27;45305;-65
2023/06/24 06:23:50;;;;;;;2.20;2.10;;;24.80;42.10;;;;;;5130017;27;45380;-65
2023/06/24 06:26:17;;;;;;;2.40;2.10;;;24.70;42.00;;;;;;5129785;27;46356;-66
2023/06/24 06:28:43;;;;;;;2.22;2.03;;;24.80;42.10;;;;;;5129584;27;45329;-66
2023/06/24 06:31:10;;;;;;;2.67;2.45;;;24.80;42.10;;;;;;5129329;27;45256;-65
2023/06/24 06:33:37;;;;;;;2.47;2.28;;;24.80;42.00;;;;;;5129900;27;45451;-66
2023/06/24 06:36:04;;;;;;;2.33;2.08;;;24.80;42.00;;;;;;5129404;27;47634;-66
2023/06/24 06:38:31;;;;;;;2.53;2.33;;;24.80;42.10;;;;;;5129332;27;45403;-65
2023/06/24 06:40:59;;;;;;;2.70;2.50;;;24.90;42.00;;;;;;5129405;27;45386;-66
2023/06/24 06:43:26;;;;;;;1.80;1.70;;;24.90;42.00;;;;;;5129737;27;45293;-66
2023/06/24 06:45:53;;;;;;;2.22;2.03;;;24.90;42.00;;;;;;5129522;27;46385;-65
2023/06/24 06:48:20;;;;;;;2.17;1.98;;;24.90;42.00;;;;;;5129164;27;45430;-66
2023/06/24 06:50:46;;;;;;;2.83;2.00;;;24.90;42.00;;;;;;5129251;27;45316;-66
2023/06/24 06:53:13;;;;;;;2.10;2.00;;;24.90;42.00;;;;;;5129732;27;45371;-66
2023/06/24 06:55:42;;;;;;;2.00;1.90;;;24.90;42.00;;;;;;5129118;27;45300;-66
2023/06/24 06:58:10;;;;;;;1.92;1.83;;;24.90;41.90;;;;;;5129218;27;45316;-66
2023/06/24 07:00:37;;;;;;;2.35;1.98;;;24.90;42.60;;;;;;5129292;27;45313;-66
2023/06/24 07:03:04;;;;;;;2.30;2.10;;;25.00;42.00;;;;;;5129341;27;45233;-66
2023/06/24 07:05:31;;;;;;;2.10;2.00;;;25.00;42.00;;;;;;5128921;27;45559;-66
2023/06/24 07:07:58;;;;;;;2.40;2.20;;;25.00;42.00;;;;;;5129056;27;45291;-66
2023/06/24 07:10:24;;;;;;;2.13;2.00;;;25.00;41.90;;;;;;5129160;27;45457;-66
2023/06/24 07:12:57;;;;;;;2.33;2.10;;;25.00;41.90;;;;;;5129248;27;45485;-66
2023/06/24 07:15:26;;;;;;;2.60;2.40;;;25.00;41.90;;;;;;5128829;27;45366;-66
2023/06/24 07:17:53;;;;;;;2.03;1.90;;;25.00;41.80;;;;;;5129174;27;45360;-66
2023/06/24 07:20:20;;;;;;;2.42;2.25;;;25.10;41.80;;;;;;5128819;27;45321;-66
2023/06/24 07:22:46;;;;;;;3.20;2.28;;;25.10;41.80;;;;;;5129290;27;45366;-66
2023/06/24 07:25:13;;;;;;;2.78;2.17;;;25.10;41.80;;;;;;5128788;27;47304;-66
2023/06/24 07:27:40;;;;;;;2.40;2.30;;;25.10;41.80;;;;;;5128575;27;45367;-65
2023/06/24 07:30:08;;;;;;;2.20;2.10;;;25.20;41.80;;;;;;5128560;27;45364;-66
2023/06/24 07:32:36;;;;;;;2.60;2.30;;;25.20;41.80;;;;;;5128832;27;45273;-66
2023/06/24 07:35:03;;;;;;;2.03;1.92;;;25.20;41.80;;;;;;5128503;27;46705;-65
2023/06/24 07:37:30;;;;;;;2.13;2.00;;;25.20;41.70;;;;;;5128459;27;45367;-66
2023/06/24 07:39:57;;;;;;;2.35;2.15;;;25.20;41.70;;;;;;5128497;27;45376;-65
2023/06/24 07:42:24;;;;;;;2.33;2.13;;;25.20;42.40;;;;;;5128642;27;45414;-66
2023/06/24 07:44:51;;;;;;;2.33;1.90;;;25.30;41.70;;;;;;5128386;27;46420;-66
2023/06/24 07:47:18;;;;;;;2.10;2.00;;;25.30;41.70;;;;;;5128374;27;45268;-65
2023/06/24 07:49:46;;;;;;;2.10;1.90;;;25.30;41.70;;;;;;5128363;27;45394;-65
2023/06/24 07:52:13;;;;;;;2.00;1.90;;;25.30;41.70;;;;;;5128479;27;45438;-66
2023/06/24 07:54:39;;;;;;;2.20;2.03;;;25.30;41.70;;;;;;5128308;27;45337;-66
2023/06/24 07:57:06;;;;;;;2.35;2.15;;;25.40;41.70;;;;;;5128203;27;45314;-65
2023/06/24 07:59:33;;;;;;;2.00;1.90;;;25.40;41.80;;;;;;5128138;27;45268;-65
2023/06/24 08:02:00;;;;;;;2.40;2.20;;;25.40;41.80;;;;;;5128418;27;45506;-65
2023/06/24 08:04:27;;;;;;;2.08;1.98;;;25.40;41.80;;;;;;5127800;27;45444;-65
2023/06/24 08:06:55;;;;;;;2.00;1.90;;;25.40;41.80;;;;;;5125333;27;45336;-66
2023/06/24 08:09:22;;;;;;;2.33;2.17;;;25.40;41.70;;;;;;5128090;27;45320;-66
2023/06/24 08:11:49;;;;;;;2.40;2.20;;;25.50;41.80;;;;;;5128198;27;45327;-66
2023/06/24 08:14:16;;;;;;;2.30;2.05;;;25.50;41.80;;;;;;5127801;27;46749;-65
2023/06/24 08:16:42;;;;;;;1.98;1.80;;;25.50;41.80;;;;;;5127895;27;45313;-66
2023/06/24 08:19:09;;;;;;;3.30;2.00;;;25.50;41.80;;;;;;5128232;27;45340;-65
2023/06/24 08:21:37;;;;;;;2.05;1.88;;;25.50;41.80;;;;;;5128115;27;45438;-65
2023/06/24 08:24:06;;;;;;;2.22;2.03;;;25.60;41.90;;;;;;5127773;27;45466;-65
2023/06/24 08:26:33;;;;;;;2.35;2.15;;;25.60;41.90;;;;;;5127795;27;45391;-66
2023/06/24 08:29:00;;;;;;;2.33;2.13;;;25.60;41.90;;;;;;5124908;27;45405;-65
2023/06/24 08:31:27;;;;;;;2.33;2.13;;;25.60;42.00;;;;;;5127855;27;45318;-66
2023/06/24 08:33:54;;;;;;;2.00;1.85;;;25.70;41.90;;;;;;5127583;27;45312;-66
2023/06/24 08:36:22;;;;;;;2.40;2.20;;;25.70;41.90;;;;;;5127640;27;46619;-66
2023/06/24 08:38:49;;;;;;;2.28;2.08;;;25.70;41.90;;;;;;5127027;27;45314;-67
2023/06/24 08:41:17;;;;;;;2.00;1.90;;;25.80;42.00;;;;;;5127833;27;45348;-66
2023/06/24 08:43:44;;;;;;;2.33;2.13;;;25.80;41.90;;;;;;5127661;27;45279;-66
2023/06/24 08:46:11;;;;;;;2.20;2.10;;;25.80;41.80;;;;;;5127336;27;45395;-66
2023/06/24 08:48:40;;;;;;;2.20;2.05;;;25.90;42.00;;;;;;5127557;27;45429;-65
2023/06/24 08:51:07;;;;;;;2.30;2.10;;;25.90;41.90;;;;;;5127605;27;45619;-66
2023/06/24 08:53:34;;;;;;;2.55;2.35;;;25.90;41.90;;;;;;5126859;27;47731;-66
2023/06/24 08:56:01;;;;;;;1.95;1.85;;;26.00;42.00;;;;;;5127306;27;45413;-66
2023/06/24 08:58:29;;;;;;;3.10;2.22;;;26.00;42.00;;;;;;5127390;27;45307;-66
2023/06/24 09:00:56;;;;;;;2.28;2.10;;;26.00;42.00;;;;;;5127755;27;45334;-65
2023/06/24 09:03:23;;;;;;;2.42;2.22;;;26.00;42.00;;;;;;5127094;27;46376;-66
2023/06/24 09:05:50;;;;;;;2.40;2.20;;;26.10;42.00;;;;;;5127152;27;45348;-65
2023/06/24 09:08:18;;;;;;;2.15;2.05;;;26.10;42.00;;;;;;5127290;27;45361;-65
2023/06/24 09:10:44;;;;;;;2.17;2.08;;;26.10;42.10;;;;;;5127404;27;45372;-65
2023/06/24 09:13:11;;;;;;;2.53;2.33;;;26.10;42.00;;;;;;5126904;27;45458;-66
2023/06/24 09:15:39;;;;;;;2.38;2.17;;;26.20;42.00;;;;;;5127118;27;45259;-66
2023/06/24 09:18:06;;;;;;;2.15;2.05;;;26.20;42.00;;;;;;5127242;27;45373;-66
2023/06/24 09:20:39;;;;;;;2.28;2.03;;;26.30;42.10;;;;;;5127112;27;45414;-66
2023/06/24 09:23:06;;;;;;;2.20;2.05;;;26.30;42.10;;;;;;5126815;27;45485;-66
2023/06/24 09:25:32;;;;;;;2.20;2.00;;;26.30;42.10;;;;;;5127052;27;45423;-65
2023/06/24 09:28:00;;;;;;;2.65;2.25;;;26.30;42.10;;;;;;5127030;27;45357;-65
2023/06/24 09:30:26;;;;;;;2.40;2.22;;;26.40;42.10;;;;;;5126910;27;45267;-66
2023/06/24 09:32:55;;;;;;;2.40;2.20;;;26.40;42.20;;;;;;5126796;27;45229;-66
2023/06/24 09:35:23;;;;;;;2.45;2.25;;;26.40;42.20;;;;;;5126705;27;45381;-66
2023/06/24 09:37:50;;;;;;;2.55;2.35;;;26.40;42.20;;;;;;5126990;27;45311;-66
2023/06/24 09:40:17;;;;;;;2.70;2.50;;;26.50;42.20;;;;;;5126943;27;45260;-65
2023/06/24 09:42:54;;;;;;;2.22;2.05;;;26.50;42.20;;;;;;5126571;27;45460;-65
2023/06/24 09:45:24;;;;;;;2.47;2.28;;;26.50;42.20;;;;;;5126548;27;45496;-66
2023/06/24 09:47:51;;;;;;;2.15;2.00;;;26.60;42.30;;;;;;5127048;27;45189;-65
2023/06/24 09:50:19;;;;;;;2.35;2.17;;;26.60;42.20;;;;;;5126748;27;45240;-65
2023/06/24 09:52:46;;;;;;;2.92;2.15;;;26.60;42.20;;;;;;5129369;27;46994;-65
2023/06/24 09:55:14;;;;;;;2.17;1.98;;;26.70;42.20;;;;;;5130413;27;45466;-65
2023/06/24 09:57:42;;;;;;;2.60;2.17;;;26.70;42.20;;;;;;5130548;27;45285;-65
2023/06/24 10:00:11;;;;;;;2.35;2.15;;;26.70;42.20;;;;;;5130515;27;45425;-65
2023/06/24 10:02:37;;;;;;;2.60;2.20;;;26.80;42.20;;;;;;5130110;27;45463;-66
2023/06/24 10:05:05;;;;;;;3.13;2.20;;;26.80;42.10;;;;;;5130046;27;45335;-66
2023/06/24 10:07:33;;;;;;;2.42;1.90;;;26.80;42.20;;;;;;5130226;27;45313;-65
2023/06/24 10:10:01;;;;;;;3.38;2.33;;;26.90;42.10;;;;;;5130043;27;45426;-66
2023/06/24 10:12:28;;;;;;;2.30;2.10;;;26.90;42.10;;;;;;5129842;27;46405;-65
2023/06/24 10:14:55;;;;;;;3.00;2.40;;;26.90;42.10;;;;;;5130337;27;45353;-66
2023/06/24 10:17:22;;;;;;;2.53;2.33;;;27.00;42.20;;;;;;5130082;27;45273;-65
2023/06/24 10:19:49;;;;;;;2.83;2.40;;;27.00;42.10;;;;;;5130289;27;45282;-66
2023/06/24 10:22:15;;;;;;;2.58;2.38;;;27.00;42.20;;;;;;5129635;27;45304;-67
2023/06/24 10:24:46;;;;;;;2.38;2.15;;;27.10;42.20;;;;;;5123806;27;45315;-65
2023/06/24 10:27:15;;;;;;;2.45;2.25;;;27.10;42.10;;;;;;5110373;27;45378;-66
2023/06/24 10:29:46;;;;;;;2.60;2.40;;;27.20;42.20;;;;;;5113275;27;45331;-66
2023/06/24 10:32:12;;;;;;;2.63;2.42;;;27.20;42.10;;;;;;5129684;27;46862;-66
2023/06/24 10:34:43;;;;;;;2.53;2.30;;;27.30;42.10;;;;;;5129797;27;45194;-65
2023/06/24 10:37:13;;;;;;;2.45;2.20;;;27.30;42.10;;;;;;5129794;27;45245;-66
2023/06/24 10:39:41;;;;;;;2.17;2.03;;;27.30;42.00;;;;;;5129746;27;45388;-66
2023/06/24 10:42:37;;;;;;;2.35;2.15;;;27.30;42.00;;;;;;5129594;27;46404;-65
2023/06/24 10:45:15;;;;;;;2.53;2.33;;;27.40;41.90;;;;;;5129532;27;45409;-66
2023/06/24 10:47:42;;;;;;;2.30;2.10;;;27.40;41.80;;;;;;5129541;27;45257;-66
2023/06/24 10:50:11;;;;;;;2.45;2.25;;;27.40;41.80;;;;;;5129470;27;45387;-65
2023/06/24 10:52:39;;;;;;;3.30;3.00;;;27.50;41.80;;;;;;5129181;27;46535;-65
2023/06/24 10:55:07;;;;;;;2.22;2.13;;;27.50;41.70;;;;;;5128999;27;45393;-67
2023/06/24 10:57:35;;;;;;;2.38;2.20;;;27.60;41.80;;;;;;5129176;27;45393;-66
2023/06/24 11:00:03;;;;;;;2.15;2.00;;;27.60;41.80;;;;;;5129108;27;45507;-65
2023/06/24 11:02:29;;;;;;;3.38;2.20;;;27.60;41.80;;;;;;5128472;27;45420;-66
2023/06/24 11:04:57;;;;;;;2.08;1.98;;;27.60;41.70;;;;;;5128547;27;45322;-65
2023/06/24 11:07:25;;;;;;;9.60;2.30;;;27.70;41.70;;;;;;5129167;27;45145;-66
2023/06/24 11:09:52;;;;;;;2.53;2.33;;;27.80;41.60;;;;;;5129126;27;45418;-66
2023/06/24 11:12:19;;;;;;;2.42;2.22;;;27.80;41.50;;;;;;5128689;27;45456;-66
2023/06/24 11:14:47;;;;;;;2.08;1.98;;;27.80;41.40;;;;;;5128939;27;45351;-66
2023/06/24 11:17:14;;;;;;;2.28;2.08;;;27.90;41.30;;;;;;5129096;27;45273;-65
2023/06/24 11:19:41;;;;;;;3.70;2.30;;;27.90;41.30;;;;;;5128972;27;45538;-66
2023/06/24 11:22:08;;;;;;;2.17;2.08;;;28.00;41.20;;;;;;5128199;27;46387;-66
2023/06/24 11:24:35;;;;;;;2.63;2.42;;;28.00;41.10;;;;;;5128746;27;45330;-66
2023/06/24 11:27:02;;;;;;;2.28;2.08;;;28.10;41.00;;;;;;5128535;27;45305;-66
2023/06/24 11:29:30;;;;;;;2.60;2.40;;;28.10;40.80;;;;;;5128648;27;45318;-66
2023/06/24 11:31:58;;;;;;;2.50;2.10;;;28.10;40.80;;;;;;5128707;27;45727;-66
2023/06/24 11:34:25;;;;;;;3.45;2.08;;;28.20;40.70;;;;;;5128601;27;45378;-66
2023/06/24 11:36:51;;;;;;;2.50;2.20;;;28.20;40.60;;;;;;5129004;27;45299;-65
2023/06/24 11:39:22;;;;;;;3.05;2.08;;;28.30;40.60;;;;;;5128786;27;45306;-66
2023/06/24 11:41:49;;;;;;;2.28;2.10;;;28.40;40.50;;;;;;5127986;27;45453;-66
2023/06/24 11:44:18;;;;;;;2.17;2.08;;;28.40;40.50;;;;;;5128837;27;45348;-66
2023/06/24 11:46:45;;;;;;;2.40;2.25;;;28.40;40.30;;;;;;5128579;27;45286;-66
2023/06/24 11:49:14;;;;;;;2.67;2.47;;;28.50;40.10;;;;;;5128403;27;45361;-66
2023/06/24 11:51:47;;;;;;;2.42;2.22;;;28.50;40.10;;;;;;5128061;27;45537;-67
2023/06/24 11:54:15;;;;;;;3.10;2.35;;;28.60;40.70;;;;;;5128235;27;45495;-66
2023/06/24 11:56:42;;;;;;;2.92;2.15;;;28.70;40.10;;;;;;5128236;27;45298;-66
2023/06/24 11:59:18;;;;;;;2.85;2.53;;;28.80;40.00;;;;;;5128497;27;45264;-67
2023/06/24 12:01:45;;;;;;;4.55;2.70;;;28.70;35.60;;;;;;5128068;27;45324;-67
2023/06/24 12:04:13;;;;;;;3.60;2.80;;;28.70;35.40;;;;;;5128020;27;45467;-66
2023/06/24 12:06:40;;;;;;;3.05;2.78;;;28.70;35.30;;;;;;5128178;27;45417;-67
2023/06/24 12:09:07;;;;;;;7.05;6.28;;;28.80;34.40;;;;;;5127308;27;45560;-66
2023/06/24 12:11:34;;;;;;;6.60;5.72;;;28.90;34.40;;;;;;5127995;27;47562;-67
2023/06/24 12:14:01;;;;;;;5.30;4.28;;;28.80;33.10;;;;;;5126894;27;45334;-66
2023/06/24 12:16:28;;;;;;;4.55;3.47;;;28.80;33.40;;;;;;5127373;27;45479;-67
2023/06/24 12:18:55;;;;;;;4.68;4.28;;;28.90;33.50;;;;;;5127852;27;45375;-67
2023/06/24 12:21:23;;;;;;;9.10;8.27;;;28.90;33.60;;;;;;5127226;27;46475;-68
2023/06/24 12:23:50;;;;;;;4.65;4.25;;;28.90;33.50;;;;;;5127931;27;45334;-67
2023/06/24 12:26:16;;;;;;;3.30;3.00;;;29.00;33.60;;;;;;5127757;27;45220;-67
2023/06/24 12:28:44;;;;;;;2.92;2.72;;;29.10;33.20;;;;;;5127908;27;45358;-67
2023/06/24 12:31:10;;;;;;;4.35;2.80;;;29.20;33.60;;;;;;5126877;27;46449;-66
2023/06/24 12:33:37;;;;;;;4.97;3.08;;;29.20;32.60;;;;;;5127495;27;45260;-66
2023/06/24 12:36:05;;;;;;;3.20;2.90;;;29.20;32.50;;;;;;5127733;27;45306;-65
2023/06/24 12:38:33;;;;;;;2.60;2.38;;;29.20;32.50;;;;;;5127533;27;45300;-67
2023/06/24 12:41:00;;;;;;;2.78;2.15;;;29.20;32.00;;;;;;5127448;27;46552;-67
2023/06/24 12:43:26;;;;;;;3.95;2.67;;;29.20;32.10;;;;;;5126860;27;45318;-67
2023/06/24 12:45:53;;;;;;;3.35;3.08;;;29.30;31.90;;;;;;5127494;27;45290;-67
2023/06/24 12:48:20;;;;;;;4.75;4.32;;;29.30;31.90;;;;;;5127422;27;45373;-67
2023/06/24 12:50:52;;;;;;;4.72;4.20;;;29.40;31.70;;;;;;5127125;27;46647;-66
2023/06/24 12:53:19;;;;;;;11.43;8.95;;;29.40;31.20;;;;;;5126720;27;45430;-66